createdAt,value
2017-10-21T00:01:06.269Z,16.40
2017-10-21T00:03:32.471Z,15.35
2017-10-21T00:05:58.710Z,15.80
2017-10-21T00:08:24.925Z,16.02
2017-10-21T00:10:51.115Z,17.12
2017-10-21T00:13:17.366Z,16.37
2017-10-21T00:15:43.605Z,16.80
2017-10-21T00:18:10.813Z,17.25
2017-10-21T00:20:37.066Z,17.70
2017-10-21T00:23:03.280Z,17.00
2017-10-21T00:25:29.496Z,14.63
2017-10-21T00:27:55.692Z,17.85
2017-10-21T00:30:21.944Z,18.15
2017-10-21T00:32:48.538Z,17.87
2017-10-21T00:35:14.792Z,18.00
2017-10-21T00:37:40.979Z,17.62
2017-10-21T00:40:07.266Z,19.15
2017-10-21T00:42:33.856Z,18.45
2017-10-21T00:45:00.085Z,17.35
2017-10-21T00:47:26.296Z,17.95
2017-10-21T00:49:52.517Z,17.75
2017-10-21T00:52:18.751Z,17.42
2017-10-21T00:54:44.968Z,17.70
2017-10-21T00:57:11.203Z,18.30
2017-10-21T00:59:37.438Z,18.08
2017-10-21T01:02:03.691Z,18.08
2017-10-21T01:04:29.970Z,18.00
2017-10-21T01:06:56.251Z,16.83
2017-10-21T01:09:22.591Z,18.62
2017-10-21T01:11:48.861Z,17.10
2017-10-21T01:14:15.095Z,17.83
2017-10-21T01:16:41.385Z,18.62
2017-10-21T01:19:07.656Z,18.05
2017-10-21T01:21:33.914Z,19.50
2017-10-21T01:24:01.145Z,18.25
2017-10-21T01:26:27.451Z,18.37
2017-10-21T01:28:53.688Z,17.58
2017-10-21T01:31:20.724Z,17.55
2017-10-21T01:33:46.995Z,16.90
2017-10-21T01:36:13.270Z,17.08
2017-10-21T01:38:39.885Z,18.75
2017-10-21T01:41:06.158Z,17.98
2017-10-21T01:43:32.411Z,17.98
2017-10-21T01:45:58.668Z,17.42
2017-10-21T01:48:24.913Z,17.90
2017-10-21T01:50:51.513Z,19.37
2017-10-21T01:53:17.806Z,17.20
2017-10-21T01:55:44.058Z,16.30
2017-10-21T01:58:10.296Z,17.02
2017-10-21T02:00:36.552Z,17.95
2017-10-21T02:03:02.806Z,19.08
2017-10-21T02:05:29.417Z,19.20
2017-10-21T02:07:55.682Z,20.25
2017-10-21T02:10:21.937Z,18.95
2017-10-21T02:12:48.197Z,19.67
2017-10-21T02:15:14.457Z,18.05
2017-10-21T02:17:41.104Z,18.40
2017-10-21T02:20:07.341Z,18.27
2017-10-21T02:22:33.606Z,18.30
2017-10-21T02:24:59.853Z,17.00
2017-10-21T02:27:26.093Z,18.70
2017-10-21T02:29:52.352Z,18.67
2017-10-21T02:32:18.580Z,17.60
2017-10-21T02:34:44.845Z,20.62
2017-10-21T02:37:11.088Z,19.05
2017-10-21T02:39:37.330Z,19.42
2017-10-21T02:42:03.582Z,20.02
2017-10-21T02:44:30.216Z,20.30
2017-10-21T02:46:56.838Z,19.67
2017-10-21T02:49:23.092Z,20.37
2017-10-21T02:51:49.353Z,18.45
2017-10-21T02:54:15.600Z,21.05
2017-10-21T02:56:41.871Z,19.60
2017-10-21T02:59:09.130Z,18.95
2017-10-21T03:01:35.364Z,19.62
2017-10-21T03:04:01.591Z,20.45
2017-10-21T03:06:27.841Z,20.00
2017-10-21T03:08:54.082Z,19.52
2017-10-21T03:11:20.352Z,18.37
2017-10-21T03:13:46.573Z,20.10
2017-10-21T03:16:12.805Z,19.70
2017-10-21T03:21:11.844Z,19.95
2017-10-21T03:23:38.144Z,20.48
2017-10-21T03:26:04.446Z,20.25
2017-10-21T03:28:30.716Z,21.80
2017-10-21T03:30:57.356Z,22.75
2017-10-21T03:33:23.961Z,24.90
2017-10-21T03:35:50.199Z,24.37
2017-10-21T03:38:16.478Z,24.87
2017-10-21T03:40:42.692Z,24.40
2017-10-21T03:43:08.906Z,24.65
2017-10-21T03:45:35.518Z,23.60
2017-10-21T03:48:01.726Z,23.50
2017-10-21T03:50:27.947Z,22.25
2017-10-21T03:52:54.145Z,22.15
2017-10-21T03:55:20.365Z,23.45
2017-10-21T03:57:46.593Z,21.67
2017-10-21T04:00:12.827Z,21.33
2017-10-21T04:02:39.014Z,22.50
2017-10-21T04:05:05.221Z,23.70
2017-10-21T04:07:31.465Z,22.70
2017-10-21T04:09:57.678Z,21.80
2017-10-21T04:12:23.927Z,22.13
2017-10-21T04:14:50.163Z,22.05
2017-10-21T04:17:16.816Z,24.17
2017-10-21T04:19:43.426Z,23.00
2017-10-21T04:22:09.682Z,23.67
2017-10-21T04:24:35.941Z,23.45
2017-10-21T04:27:02.180Z,25.90
2017-10-21T04:29:28.465Z,24.02
2017-10-21T04:31:55.056Z,25.65
2017-10-21T04:34:21.283Z,25.88
2017-10-21T04:36:47.480Z,25.70
2017-10-21T04:39:13.697Z,23.10
2017-10-21T04:41:39.893Z,24.05
2017-10-21T04:44:06.112Z,25.02
2017-10-21T04:46:32.312Z,24.73
2017-10-21T04:48:58.550Z,25.40
2017-10-21T04:51:24.788Z,25.17
2017-10-21T04:53:50.970Z,24.15
2017-10-21T04:56:17.168Z,26.10
2017-10-21T04:58:43.740Z,25.95
2017-10-21T05:01:09.974Z,24.90
2017-10-21T05:03:36.204Z,27.95
2017-10-21T05:06:02.685Z,24.95
2017-10-21T05:08:28.909Z,25.17
2017-10-21T05:10:55.110Z,23.38
2017-10-21T05:13:22.265Z,25.12
2017-10-21T05:15:48.461Z,25.02
2017-10-21T05:18:14.694Z,27.40
2017-10-21T05:20:40.942Z,24.25
2017-10-21T05:23:07.172Z,26.77
2017-10-21T05:25:33.400Z,24.15
2017-10-21T05:27:59.609Z,25.20
2017-10-21T05:30:25.882Z,26.20
2017-10-21T05:32:52.108Z,26.55
2017-10-21T05:35:18.327Z,24.65
2017-10-21T05:37:45.348Z,26.90
2017-10-21T05:40:11.604Z,26.83
2017-10-21T05:42:37.860Z,25.37
2017-10-21T05:45:04.670Z,23.05
2017-10-21T05:47:30.941Z,26.75
2017-10-21T05:49:57.184Z,27.20
2017-10-21T05:52:23.472Z,26.37
2017-10-21T05:54:49.679Z,26.20
2017-10-21T05:57:15.916Z,25.77
2017-10-21T05:59:42.119Z,26.75
2017-10-21T06:02:08.372Z,26.02
2017-10-21T06:04:34.633Z,26.58
2017-10-21T06:07:01.252Z,28.73
2017-10-21T06:09:27.476Z,27.48
2017-10-21T06:11:53.718Z,25.58
2017-10-21T06:14:20.313Z,26.42
2017-10-21T06:16:46.553Z,26.58
2017-10-21T06:19:12.835Z,26.92
2017-10-21T06:21:39.113Z,25.95
2017-10-21T06:24:05.384Z,25.15
2017-10-21T06:26:31.608Z,27.37
2017-10-21T06:28:58.199Z,23.25
2017-10-21T06:31:24.482Z,25.05
2017-10-21T06:33:50.709Z,27.20
2017-10-21T06:36:16.997Z,24.42
2017-10-21T06:38:43.225Z,26.40
2017-10-21T06:41:09.568Z,25.85
2017-10-21T06:43:35.776Z,27.23
2017-10-21T06:46:02.011Z,24.65
2017-10-21T06:48:28.224Z,26.08
2017-10-21T06:50:54.423Z,25.37
2017-10-21T06:53:20.677Z,23.73
2017-10-21T06:55:46.909Z,26.00
2017-10-21T06:58:13.167Z,24.30
2017-10-21T07:00:39.397Z,24.98
2017-10-21T07:03:05.671Z,25.53
2017-10-21T07:05:31.911Z,25.93
2017-10-21T07:07:58.133Z,26.62
2017-10-21T07:10:24.385Z,24.15
2017-10-21T07:12:51.614Z,23.53
2017-10-21T07:15:17.881Z,24.27
2017-10-21T07:17:44.118Z,23.85
2017-10-21T07:20:10.349Z,23.63
2017-10-21T07:22:36.558Z,24.13
2017-10-21T07:25:02.825Z,22.97
2017-10-21T07:27:29.440Z,25.12
2017-10-21T07:29:56.105Z,22.77
2017-10-21T07:32:22.712Z,22.87
2017-10-21T07:34:48.960Z,21.80
2017-10-21T07:37:15.560Z,25.17
2017-10-21T07:39:41.786Z,22.60
2017-10-21T07:42:08.021Z,22.23
2017-10-21T07:44:34.267Z,21.58
2017-10-21T07:47:00.880Z,22.40
2017-10-21T07:49:27.184Z,20.53
2017-10-21T07:51:53.417Z,22.33
2017-10-21T07:54:19.662Z,23.63
2017-10-21T07:56:45.863Z,23.63
2017-10-21T07:59:12.101Z,23.47
2017-10-21T08:01:38.323Z,21.67
2017-10-21T08:04:04.550Z,22.40
2017-10-21T08:06:30.760Z,21.10
2017-10-21T08:08:56.962Z,21.50
2017-10-21T08:11:23.200Z,20.90
2017-10-21T08:13:49.795Z,20.90
2017-10-21T08:16:16.047Z,19.87
2017-10-21T08:18:42.344Z,18.07
2017-10-21T08:21:08.595Z,19.47
2017-10-21T08:23:34.847Z,18.90
2017-10-21T08:26:01.436Z,18.57
2017-10-21T08:28:27.691Z,19.90
2017-10-21T08:30:54.014Z,18.47
2017-10-21T08:33:20.321Z,21.17
2017-10-21T08:35:46.619Z,19.67
2017-10-21T08:38:12.925Z,19.27
2017-10-21T08:40:39.199Z,20.90
2017-10-21T08:43:05.784Z,19.70
2017-10-21T08:45:32.031Z,20.17
2017-10-21T08:47:58.679Z,19.70
2017-10-21T08:50:25.309Z,18.27
2017-10-21T08:52:51.945Z,19.90
2017-10-21T08:55:18.590Z,19.20
2017-10-21T08:57:44.815Z,19.77
2017-10-21T09:00:12.397Z,18.50
2017-10-21T09:02:38.629Z,17.93
2017-10-21T09:05:06.905Z,18.83
2017-10-21T09:07:33.134Z,22.00
2017-10-21T09:09:59.369Z,19.40
2017-10-21T09:12:25.631Z,22.00
2017-10-21T09:14:51.857Z,21.23
2017-10-21T09:17:18.312Z,20.23
2017-10-21T09:19:44.936Z,22.30
2017-10-21T09:22:12.387Z,20.63
2017-10-21T09:24:38.594Z,21.10
2017-10-21T09:27:04.816Z,17.93
2017-10-21T09:29:31.019Z,18.17
2017-10-21T09:31:57.264Z,18.73
2017-10-21T09:34:23.556Z,17.43
2017-10-21T09:36:50.163Z,17.80
2017-10-21T09:39:16.461Z,16.80
2017-10-21T09:41:42.721Z,18.47
2017-10-21T09:44:08.965Z,16.70
2017-10-21T09:46:35.617Z,17.83
2017-10-21T09:49:02.270Z,17.10
2017-10-21T09:51:28.509Z,16.83
2017-10-21T09:53:54.788Z,17.10
2017-10-21T09:56:21.011Z,16.63
2017-10-21T09:58:47.246Z,15.20
2017-10-21T10:01:13.505Z,15.60
2017-10-21T10:03:39.757Z,15.90
2017-10-21T10:06:05.963Z,14.90
2017-10-21T10:08:32.201Z,14.97
2017-10-21T10:10:58.426Z,15.43
2017-10-21T10:13:24.724Z,15.77
2017-10-21T10:15:50.950Z,15.37
2017-10-21T10:18:17.191Z,15.50
2017-10-21T10:20:43.776Z,15.27
2017-10-21T10:23:09.992Z,13.40
2017-10-21T10:25:36.221Z,16.10
2017-10-21T10:28:02.478Z,13.87
2017-10-21T10:30:28.700Z,13.20
2017-10-21T10:32:54.973Z,14.23
2017-10-21T10:35:21.585Z,14.23
2017-10-21T10:37:47.868Z,15.20
2017-10-21T10:40:14.081Z,14.17
2017-10-21T10:42:40.849Z,13.03
2017-10-21T10:45:07.125Z,14.23
2017-10-21T10:47:33.728Z,13.70
2017-10-21T10:50:00.033Z,13.13
2017-10-21T10:52:27.977Z,11.57
2017-10-21T10:54:54.614Z,12.97
2017-10-21T10:57:21.217Z,12.43
2017-10-21T10:59:47.430Z,11.73
2017-10-21T11:02:13.704Z,10.90
2017-10-21T11:04:40.309Z,13.93
2017-10-21T11:07:06.590Z,11.33
2017-10-21T11:09:32.808Z,12.37
2017-10-21T11:11:59.074Z,11.50
2017-10-21T11:14:25.351Z,10.30
2017-10-21T11:16:51.852Z,10.27
2017-10-21T11:19:18.070Z,10.83
2017-10-21T11:21:44.312Z,9.57
2017-10-21T11:24:10.538Z,11.67
2017-10-21T11:26:37.603Z,10.80
2017-10-21T11:29:03.884Z,10.73
2017-10-21T11:31:30.111Z,10.17
2017-10-21T11:33:56.381Z,12.30
2017-10-21T11:36:22.934Z,10.80
2017-10-21T11:38:49.306Z,10.93
2017-10-21T11:41:15.741Z,10.90
2017-10-21T11:43:42.017Z,11.10
2017-10-21T11:46:08.260Z,12.30
2017-10-21T11:48:34.886Z,12.17
2017-10-21T11:51:01.178Z,11.63
2017-10-21T11:53:27.429Z,11.47
2017-10-21T11:55:53.727Z,10.67
2017-10-21T11:58:20.759Z,11.67
2017-10-21T12:00:46.984Z,10.23
2017-10-21T12:03:13.223Z,10.83
2017-10-21T12:05:39.461Z,10.43
2017-10-21T12:08:05.753Z,9.30
2017-10-21T12:10:32.359Z,9.33
2017-10-21T12:12:58.625Z,9.13
2017-10-21T12:15:25.265Z,9.03
2017-10-21T12:17:51.767Z,8.50
2017-10-21T12:20:17.990Z,9.20
2017-10-21T12:22:44.246Z,10.03
2017-10-21T12:25:10.813Z,9.07
2017-10-21T12:27:38.049Z,10.03
2017-10-21T12:30:04.336Z,8.80
2017-10-21T12:32:30.562Z,8.87
2017-10-21T12:34:56.813Z,9.30
2017-10-21T12:37:23.378Z,8.73
2017-10-21T12:39:49.643Z,7.87
2017-10-21T12:42:15.892Z,8.77
2017-10-21T12:44:42.177Z,9.37
2017-10-21T12:47:08.398Z,9.03
2017-10-21T12:49:34.639Z,9.17
2017-10-21T12:52:00.879Z,7.90
2017-10-21T12:54:27.120Z,9.03
2017-10-21T12:56:53.759Z,9.00
2017-10-21T12:59:20.074Z,8.20
2017-10-21T13:01:46.370Z,7.37
2017-10-21T13:04:12.727Z,9.70
2017-10-21T13:06:38.974Z,8.00
2017-10-21T13:09:05.211Z,8.37
2017-10-21T13:11:32.245Z,8.60
2017-10-21T13:13:58.476Z,7.50
2017-10-21T13:16:24.726Z,7.73
2017-10-21T13:18:50.971Z,8.47
2017-10-21T13:21:17.534Z,7.60
2017-10-21T13:23:43.805Z,8.57
2017-10-21T13:26:10.079Z,8.20
2017-10-21T13:28:37.339Z,8.70
2017-10-21T13:31:03.584Z,9.03
2017-10-21T13:33:29.893Z,7.60
2017-10-21T13:35:57.182Z,8.90
2017-10-21T13:38:24.333Z,8.50
2017-10-21T13:40:50.576Z,8.30
2017-10-21T13:43:17.743Z,8.67
2017-10-21T13:45:44.359Z,8.87
2017-10-21T13:48:10.561Z,8.00
2017-10-21T13:50:36.863Z,9.67
2017-10-21T13:53:03.106Z,9.20
2017-10-21T13:55:29.336Z,8.60
2017-10-21T13:57:55.591Z,9.40
2017-10-21T14:00:21.801Z,9.07
2017-10-21T14:02:48.057Z,9.07
2017-10-21T14:05:14.329Z,9.40
2017-10-21T14:07:41.578Z,9.60
2017-10-21T14:10:07.806Z,9.63
2017-10-21T14:12:34.461Z,9.50
2017-10-21T14:15:00.687Z,10.60
2017-10-21T14:17:26.898Z,10.67
2017-10-21T14:19:53.534Z,10.33
2017-10-21T14:22:20.127Z,10.07
2017-10-21T14:24:46.391Z,9.20
2017-10-21T14:27:12.966Z,10.83
2017-10-21T14:29:39.224Z,9.60
2017-10-21T14:32:05.469Z,9.97
2017-10-21T14:34:31.743Z,10.67
2017-10-21T14:36:57.985Z,10.27
2017-10-21T14:39:25.234Z,9.97
2017-10-21T14:41:51.458Z,10.70
2017-10-21T14:44:17.686Z,9.90
2017-10-21T14:46:43.940Z,10.67
2017-10-21T14:49:10.221Z,11.40
2017-10-21T14:51:36.492Z,10.93
2017-10-21T14:54:02.766Z,10.67
2017-10-21T14:56:29.477Z,10.30
2017-10-21T14:58:55.726Z,10.70
2017-10-21T15:01:22.014Z,9.70
2017-10-21T15:03:48.253Z,8.90
2017-10-21T15:06:14.520Z,9.87
2017-10-21T15:08:41.117Z,10.70
2017-10-21T15:11:07.361Z,11.60
2017-10-21T15:13:33.671Z,11.70
2017-10-21T15:15:59.906Z,11.17
2017-10-21T15:18:26.205Z,11.73
2017-10-21T15:20:52.464Z,10.43
2017-10-21T15:23:18.729Z,11.87
2017-10-21T15:25:44.983Z,11.13
2017-10-21T15:28:11.453Z,10.60
2017-10-21T15:30:37.698Z,11.10
2017-10-21T15:33:03.905Z,11.80
2017-10-21T15:35:30.156Z,11.67
2017-10-21T15:37:56.380Z,11.10
2017-10-21T15:40:23.415Z,12.40
2017-10-21T15:42:49.624Z,11.50
2017-10-21T15:45:15.910Z,12.90
2017-10-21T15:47:42.167Z,12.53
2017-10-21T15:50:08.406Z,10.80
2017-10-21T15:52:34.642Z,11.87
2017-10-21T15:55:00.885Z,10.97
2017-10-21T15:57:27.156Z,11.00
2017-10-21T15:59:53.404Z,12.70
2017-10-21T16:02:19.640Z,11.77
2017-10-21T16:04:46.112Z,11.13
2017-10-21T16:07:12.396Z,12.30
2017-10-21T16:09:38.669Z,12.00
2017-10-21T16:12:04.900Z,12.30
2017-10-21T16:14:32.077Z,12.57
2017-10-21T16:16:58.661Z,12.70
2017-10-21T16:19:24.940Z,11.93
2017-10-21T16:21:51.541Z,11.60
2017-10-21T16:24:17.781Z,13.73
2017-10-21T16:26:44.006Z,12.80
2017-10-21T16:29:10.263Z,13.77
2017-10-21T16:31:36.888Z,12.77
2017-10-21T16:34:03.088Z,13.40
2017-10-21T16:36:29.323Z,12.30
2017-10-21T16:38:55.547Z,13.07
2017-10-21T16:41:21.775Z,11.77
2017-10-21T16:43:48.022Z,13.60
2017-10-21T16:46:14.390Z,17.97
2017-10-21T16:48:40.705Z,18.57
2017-10-21T16:51:06.990Z,14.30
2017-10-21T16:53:33.307Z,198.97
2017-10-21T16:55:59.527Z,75.23
2017-10-21T16:58:25.889Z,47.47
2017-10-21T17:00:52.267Z,25.93
2017-10-21T17:03:19.105Z,18.57
2017-10-21T17:05:45.987Z,21.70
2017-10-21T17:08:12.292Z,20.90
2017-10-21T17:10:38.614Z,23.40
2017-10-21T17:13:05.023Z,21.03
2017-10-21T17:15:31.369Z,18.03
2017-10-21T17:17:58.040Z,16.00
2017-10-21T17:20:25.166Z,15.03
2017-10-21T17:22:51.453Z,14.50
2017-10-21T17:25:17.741Z,15.07
2017-10-21T17:27:43.984Z,14.40
2017-10-21T17:30:10.221Z,15.07
2017-10-21T17:32:36.540Z,15.23
2017-10-21T17:35:02.889Z,13.07
2017-10-21T17:37:29.319Z,14.90
2017-10-21T17:39:55.545Z,16.57
2017-10-21T17:42:21.782Z,16.80
2017-10-21T17:44:48.042Z,18.40
2017-10-21T17:47:14.339Z,18.33
2017-10-21T17:49:40.611Z,19.30
2017-10-21T17:52:07.209Z,17.80
2017-10-21T17:54:33.442Z,20.87
2017-10-21T17:56:59.721Z,20.37
2017-10-21T17:59:26.005Z,20.23
2017-10-21T18:01:53.347Z,21.20
2017-10-21T18:04:19.598Z,20.57
2017-10-21T18:06:46.291Z,21.10
2017-10-21T18:09:13.476Z,21.33
2017-10-21T18:11:39.792Z,22.70
2017-10-21T18:14:06.105Z,20.23
2017-10-21T18:16:32.669Z,22.13
2017-10-21T18:18:59.605Z,20.77
2017-10-21T18:21:25.898Z,23.33
2017-10-21T18:23:52.167Z,24.00
2017-10-21T18:26:18.486Z,23.67
2017-10-21T18:28:44.824Z,22.53
2017-10-21T18:31:11.139Z,22.67
2017-10-21T18:33:38.082Z,21.67
2017-10-21T18:36:04.597Z,20.90
2017-10-21T18:38:30.852Z,19.87
2017-10-21T18:40:57.198Z,19.83
2017-10-21T18:43:23.468Z,13.07
2017-10-21T18:45:49.761Z,7.67
2017-10-21T18:48:15.996Z,5.03
2017-10-21T18:50:42.277Z,4.70
2017-10-21T18:53:08.839Z,3.83
2017-10-21T18:55:35.193Z,3.40
2017-10-21T18:58:01.577Z,2.63
2017-10-21T19:00:27.949Z,6.30
2017-10-21T19:02:54.214Z,3.77
2017-10-21T19:05:20.645Z,3.00
2017-10-21T19:07:46.944Z,2.60
2017-10-21T19:10:13.601Z,3.00
2017-10-21T19:12:40.928Z,2.00
2017-10-21T19:15:07.242Z,1.75
2017-10-21T19:17:33.581Z,1.98
2017-10-21T19:19:59.924Z,2.35
2017-10-21T19:22:26.994Z,2.92
2017-10-21T19:24:53.677Z,4.00
2017-10-21T19:27:19.972Z,2.03
2017-10-21T19:29:46.390Z,1.62
2017-10-21T19:32:12.796Z,1.80
2017-10-21T19:34:39.212Z,1.35
2017-10-21T19:37:05.509Z,1.30
2017-10-21T19:39:32.413Z,1.25
2017-10-21T19:41:59.329Z,1.87
2017-10-21T19:44:25.597Z,1.20
2017-10-21T19:46:52.257Z,1.60
2017-10-21T19:49:18.548Z,1.50
2017-10-21T19:51:45.041Z,1.27
2017-10-21T19:54:11.389Z,1.83
2017-10-21T19:56:37.633Z,1.50
2017-10-21T19:59:03.948Z,1.02
2017-10-21T20:01:31.971Z,3.40
2017-10-21T20:03:58.623Z,2.87
2017-10-21T20:06:24.899Z,1.65
2017-10-21T20:08:51.202Z,1.62
2017-10-21T20:11:17.468Z,1.35
2017-10-21T20:13:43.743Z,2.10
2017-10-21T20:16:10.034Z,1.33
2017-10-21T20:18:36.268Z,1.40
2017-10-21T20:21:03.029Z,1.30
2017-10-21T20:23:29.615Z,0.90
2017-10-21T20:25:55.895Z,1.10
2017-10-21T20:28:22.489Z,1.50
2017-10-21T20:30:48.756Z,1.50
2017-10-21T20:33:17.069Z,1.40
2017-10-21T20:35:43.328Z,1.50
2017-10-21T20:38:09.666Z,1.08
2017-10-21T20:40:35.953Z,1.40
2017-10-21T20:43:02.212Z,1.50
2017-10-21T20:45:28.545Z,1.50
2017-10-21T20:47:54.812Z,1.10
2017-10-21T20:50:21.409Z,1.10
2017-10-21T20:52:48.517Z,1.20
2017-10-21T20:55:14.909Z,1.10
2017-10-21T20:57:41.184Z,1.60
2017-10-21T21:00:07.566Z,0.80
2017-10-21T21:02:33.892Z,1.30
2017-10-21T21:05:00.173Z,1.02
2017-10-21T21:07:26.407Z,1.10
2017-10-21T21:09:52.722Z,0.98
2017-10-21T21:12:20.126Z,1.55
2017-10-21T21:14:47.523Z,1.52
2017-10-21T21:17:14.124Z,1.30
2017-10-21T21:19:40.952Z,1.20
2017-10-21T21:22:07.228Z,1.02
2017-10-21T21:24:33.477Z,1.10
2017-10-21T21:27:00.856Z,1.50
2017-10-21T21:29:27.077Z,1.70
2017-10-21T21:31:53.417Z,1.25
2017-10-21T21:34:19.651Z,1.25
2017-10-21T21:36:45.916Z,1.27
2017-10-21T21:39:12.542Z,1.15
2017-10-21T21:41:39.248Z,1.10
2017-10-21T21:44:05.496Z,1.00
2017-10-21T21:46:31.740Z,1.10
2017-10-21T21:48:58.458Z,1.10
2017-10-21T21:51:24.722Z,1.08
2017-10-21T21:53:51.353Z,1.05
2017-10-21T21:56:17.949Z,1.15
2017-10-21T21:58:44.192Z,1.12
2017-10-21T22:01:10.477Z,0.90
2017-10-21T22:03:36.789Z,1.65
2017-10-21T22:06:03.435Z,1.12
2017-10-21T22:08:29.683Z,1.20
2017-10-21T22:10:55.951Z,1.45
2017-10-21T22:13:22.181Z,1.25
2017-10-21T22:15:48.434Z,1.20
2017-10-21T22:18:15.016Z,1.33
2017-10-21T22:20:41.285Z,1.10
2017-10-21T22:23:07.946Z,1.50
2017-10-21T22:25:34.222Z,1.42
2017-10-21T22:28:00.633Z,1.10
2017-10-21T22:30:26.890Z,0.98
2017-10-21T22:32:53.122Z,1.00
2017-10-21T22:35:20.847Z,0.90
2017-10-21T22:37:47.078Z,1.25
2017-10-21T22:40:13.346Z,1.00
2017-10-21T22:42:39.598Z,1.30
2017-10-21T22:45:06.227Z,1.10
2017-10-21T22:47:32.434Z,1.37
2017-10-21T22:49:58.684Z,1.30
2017-10-21T22:52:24.892Z,1.30
2017-10-21T22:54:51.148Z,1.40
2017-10-21T22:57:17.760Z,1.45
2017-10-21T22:59:44.029Z,1.77
2017-10-21T23:02:10.259Z,1.23
2017-10-21T23:04:36.479Z,1.37
2017-10-21T23:07:03.097Z,1.40
2017-10-21T23:09:29.328Z,1.50
2017-10-21T23:11:56.488Z,2.08
2017-10-21T23:14:23.074Z,2.28
2017-10-21T23:16:49.295Z,3.97
2017-10-21T23:19:15.506Z,4.65
2017-10-21T23:21:41.732Z,2.50
2017-10-21T23:24:07.994Z,1.62
2017-10-21T23:26:34.214Z,1.20
2017-10-21T23:29:00.442Z,2.03
2017-10-21T23:31:26.654Z,3.83
2017-10-21T23:33:53.225Z,4.75
2017-10-21T23:36:19.438Z,13.30
2017-10-21T23:38:45.649Z,17.37
2017-10-21T23:41:11.872Z,18.20
2017-10-21T23:43:38.166Z,16.65
2017-10-21T23:46:04.746Z,10.20
2017-10-21T23:48:30.949Z,3.60
2017-10-21T23:50:57.196Z,2.58
2017-10-21T23:53:26.306Z,2.47
2017-10-21T23:55:52.530Z,2.25
2017-10-21T23:58:18.751Z,4.90
